sensor_id;sensor_type;location;lat;lon;timestamp;P1;durP1;ratioP1;P2;durP2;ratioP2
4389;SDS011;2209;48.982;8.406;2023-05-20T00:01:18;3.13;;;2.93;;
4389;SDS011;2209;48.982;8.406;2023-05-20T00:03:41;3.37;;;2.90;;
4389;SDS011;2209;48.982;8.406;2023-05-20T00:06:03;3.87;;;3.53;;
4389;SDS011;2209;48.982;8.406;2023-05-20T00:08:26;3.80;;;3.20;;
4389;SDS011;2209;48.982;8.406;2023-05-20T00:10:48;5.07;;;3.93;;
4389;SDS011;2209;48.982;8.406;2023-05-20T00:13:10;3.00;;;2.70;;
4389;SDS011;2209;48.982;8.406;2023-05-20T00:15:32;6.57;;;3.00;;
4389;SDS011;2209;48.982;8.406;2023-05-20T00:17:56;5.20;;;3.50;;
4389;SDS011;2209;48.982;8.406;2023-05-20T00:20:19;3.87;;;3.37;;
4389;SDS011;2209;48.982;8.406;2023-05-20T00:22:41;3.00;;;2.80;;
4389;SDS011;2209;48.982;8.406;2023-05-20T00:25:04;3.30;;;3.00;;
4389;SDS011;2209;48.982;8.406;2023-05-20T00:27:26;4.27;;;3.37;;
4389;SDS011;2209;48.982;8.406;2023-05-20T00:29:48;3.53;;;3.20;;
4389;SDS011;2209;48.982;8.406;2023-05-20T00:32:10;4.03;;;3.37;;
4389;SDS011;2209;48.982;8.406;2023-05-20T00:34:32;3.17;;;2.90;;
4389;SDS011;2209;48.982;8.406;2023-05-20T00:36:55;3.70;;;3.27;;
4389;SDS011;2209;48.982;8.406;2023-05-20T00:39:17;7.33;;;3.87;;
4389;SDS011;2209;48.982;8.406;2023-05-20T00:41:40;3.40;;;3.10;;
4389;SDS011;2209;48.982;8.406;2023-05-20T00:44:02;4.40;;;3.00;;
4389;SDS011;2209;48.982;8.406;2023-05-20T00:46:24;4.50;;;3.70;;
4389;SDS011;2209;48.982;8.406;2023-05-20T00:48:48;3.97;;;2.90;;
4389;SDS011;2209;48.982;8.406;2023-05-20T00:51:12;4.37;;;3.50;;
4389;SDS011;2209;48.982;8.406;2023-05-20T00:53:36;3.13;;;2.90;;
4389;SDS011;2209;48.982;8.406;2023-05-20T00:55:59;5.63;;;3.37;;
4389;SDS011;2209;48.982;8.406;2023-05-20T00:58:24;3.90;;;3.60;;
4389;SDS011;2209;48.982;8.406;2023-05-20T01:00:46;4.20;;;3.80;;
4389;SDS011;2209;48.982;8.406;2023-05-20T01:03:09;3.73;;;3.43;;
4389;SDS011;2209;48.982;8.406;2023-05-20T01:05:31;3.33;;;2.90;;
4389;SDS011;2209;48.982;8.406;2023-05-20T01:07:53;3.50;;;3.20;;
4389;SDS011;2209;48.982;8.406;2023-05-20T01:10:17;3.10;;;2.90;;
4389;SDS011;2209;48.982;8.406;2023-05-20T01:12:41;4.87;;;4.27;;
4389;SDS011;2209;48.982;8.406;2023-05-20T01:15:07;2.60;;;2.40;;
4389;SDS011;2209;48.982;8.406;2023-05-20T01:17:30;3.40;;;3.17;;
4389;SDS011;2209;48.982;8.406;2023-05-20T01:19:57;3.63;;;3.33;;
4389;SDS011;2209;48.982;8.406;2023-05-20T01:22:23;3.70;;;3.00;;
4389;SDS011;2209;48.982;8.406;2023-05-20T01:24:46;2.97;;;2.60;;
4389;SDS011;2209;48.982;8.406;2023-05-20T01:27:09;3.10;;;2.90;;
4389;SDS011;2209;48.982;8.406;2023-05-20T01:29:32;2.87;;;2.67;;
4389;SDS011;2209;48.982;8.406;2023-05-20T01:31:56;3.57;;;2.93;;
4389;SDS011;2209;48.982;8.406;2023-05-20T01:34:20;3.47;;;3.00;;
4389;SDS011;2209;48.982;8.406;2023-05-20T01:36:44;4.37;;;3.30;;
4389;SDS011;2209;48.982;8.406;2023-05-20T01:39:08;3.90;;;3.60;;
4389;SDS011;2209;48.982;8.406;2023-05-20T01:41:31;3.57;;;2.90;;
4389;SDS011;2209;48.982;8.406;2023-05-20T01:43:55;3.40;;;2.70;;
4389;SDS011;2209;48.982;8.406;2023-05-20T01:46:18;3.07;;;2.87;;
4389;SDS011;2209;48.982;8.406;2023-05-20T01:48:40;3.33;;;3.03;;
4389;SDS011;2209;48.982;8.406;2023-05-20T01:51:02;3.60;;;3.07;;
4389;SDS011;2209;48.982;8.406;2023-05-20T01:53:24;5.63;;;3.27;;
4389;SDS011;2209;48.982;8.406;2023-05-20T01:55:47;3.93;;;2.87;;
4389;SDS011;2209;48.982;8.406;2023-05-20T01:58:10;3.20;;;2.90;;
4389;SDS011;2209;48.982;8.406;2023-05-20T02:00:32;3.97;;;3.67;;
4389;SDS011;2209;48.982;8.406;2023-05-20T02:02:54;4.03;;;2.90;;
4389;SDS011;2209;48.982;8.406;2023-05-20T02:05:16;3.37;;;2.83;;
4389;SDS011;2209;48.982;8.406;2023-05-20T02:07:38;3.70;;;3.40;;
4389;SDS011;2209;48.982;8.406;2023-05-20T02:10:00;4.10;;;2.67;;
4389;SDS011;2209;48.982;8.406;2023-05-20T02:12:24;4.20;;;2.90;;
4389;SDS011;2209;48.982;8.406;2023-05-20T02:14:46;3.80;;;3.50;;
4389;SDS011;2209;48.982;8.406;2023-05-20T02:17:09;3.00;;;2.80;;
4389;SDS011;2209;48.982;8.406;2023-05-20T02:19:32;2.73;;;2.53;;
4389;SDS011;2209;48.982;8.406;2023-05-20T02:21:54;5.70;;;3.23;;
4389;SDS011;2209;48.982;8.406;2023-05-20T02:24:16;3.83;;;3.50;;
4389;SDS011;2209;48.982;8.406;2023-05-20T02:26:40;2.90;;;2.70;;
4389;SDS011;2209;48.982;8.406;2023-05-20T02:29:05;2.80;;;2.60;;
4389;SDS011;2209;48.982;8.406;2023-05-20T02:31:27;5.20;;;2.80;;
4389;SDS011;2209;48.982;8.406;2023-05-20T02:33:49;3.03;;;2.73;;
4389;SDS011;2209;48.982;8.406;2023-05-20T02:36:11;4.80;;;2.33;;
4389;SDS011;2209;48.982;8.406;2023-05-20T02:38:33;2.77;;;2.57;;
4389;SDS011;2209;48.982;8.406;2023-05-20T02:40:55;2.90;;;2.60;;
4389;SDS011;2209;48.982;8.406;2023-05-20T02:43:19;2.70;;;2.50;;
4389;SDS011;2209;48.982;8.406;2023-05-20T02:45:42;2.70;;;2.47;;
4389;SDS011;2209;48.982;8.406;2023-05-20T02:48:04;2.90;;;2.60;;
4389;SDS011;2209;48.982;8.406;2023-05-20T02:50:26;4.30;;;3.10;;
4389;SDS011;2209;48.982;8.406;2023-05-20T02:52:48;4.30;;;2.93;;
4389;SDS011;2209;48.982;8.406;2023-05-20T02:55:10;2.90;;;2.70;;
4389;SDS011;2209;48.982;8.406;2023-05-20T02:57:33;3.00;;;2.43;;
4389;SDS011;2209;48.982;8.406;2023-05-20T02:59:57;5.93;;;2.30;;
4389;SDS011;2209;48.982;8.406;2023-05-20T03:02:20;2.60;;;2.40;;
4389;SDS011;2209;48.982;8.406;2023-05-20T03:04:44;3.63;;;3.30;;
4389;SDS011;2209;48.982;8.406;2023-05-20T03:07:06;2.43;;;2.33;;
4389;SDS011;2209;48.982;8.406;2023-05-20T03:09:29;2.60;;;2.40;;
4389;SDS011;2209;48.982;8.406;2023-05-20T03:11:51;2.77;;;2.57;;
4389;SDS011;2209;48.982;8.406;2023-05-20T03:14:13;2.33;;;2.20;;
4389;SDS011;2209;48.982;8.406;2023-05-20T03:16:35;2.60;;;2.03;;
4389;SDS011;2209;48.982;8.406;2023-05-20T03:18:59;2.50;;;2.30;;
4389;SDS011;2209;48.982;8.406;2023-05-20T03:21:21;2.83;;;2.63;;
4389;SDS011;2209;48.982;8.406;2023-05-20T03:23:43;3.33;;;2.37;;
4389;SDS011;2209;48.982;8.406;2023-05-20T03:26:07;2.20;;;2.10;;
4389;SDS011;2209;48.982;8.406;2023-05-20T03:28:29;9.80;;;2.70;;
4389;SDS011;2209;48.982;8.406;2023-05-20T03:30:51;2.93;;;2.33;;
4389;SDS011;2209;48.982;8.406;2023-05-20T03:33:13;2.30;;;2.17;;
4389;SDS011;2209;48.982;8.406;2023-05-20T03:35:37;2.70;;;2.50;;
4389;SDS011;2209;48.982;8.406;2023-05-20T03:37:59;2.03;;;1.93;;
4389;SDS011;2209;48.982;8.406;2023-05-20T03:40:21;2.27;;;2.17;;
4389;SDS011;2209;48.982;8.406;2023-05-20T03:42:43;2.53;;;2.30;;
4389;SDS011;2209;48.982;8.406;2023-05-20T03:45:05;3.27;;;2.70;;
4389;SDS011;2209;48.982;8.406;2023-05-20T03:47:28;3.30;;;2.47;;
4389;SDS011;2209;48.982;8.406;2023-05-20T03:49:50;3.00;;;2.20;;
4389;SDS011;2209;48.982;8.406;2023-05-20T03:52:16;3.30;;;2.80;;
4389;SDS011;2209;48.982;8.406;2023-05-20T03:54:38;3.27;;;2.97;;
4389;SDS011;2209;48.982;8.406;2023-05-20T03:57:01;3.50;;;2.77;;
4389;SDS011;2209;48.982;8.406;2023-05-20T03:59:24;3.17;;;2.53;;
4389;SDS011;2209;48.982;8.406;2023-05-20T04:01:46;3.20;;;2.43;;
4389;SDS011;2209;48.982;8.406;2023-05-20T04:04:11;2.47;;;2.13;;
4389;SDS011;2209;48.982;8.406;2023-05-20T04:06:33;4.97;;;2.60;;
4389;SDS011;2209;48.982;8.406;2023-05-20T04:08:57;2.50;;;2.30;;
4389;SDS011;2209;48.982;8.406;2023-05-20T04:11:19;2.53;;;2.43;;
4389;SDS011;2209;48.982;8.406;2023-05-20T04:13:41;2.27;;;2.13;;
4389;SDS011;2209;48.982;8.406;2023-05-20T04:16:04;2.23;;;2.03;;
4389;SDS011;2209;48.982;8.406;2023-05-20T04:18:26;3.03;;;2.47;;
4389;SDS011;2209;48.982;8.406;2023-05-20T04:20:52;2.70;;;2.27;;
4389;SDS011;2209;48.982;8.406;2023-05-20T04:23:15;4.60;;;2.30;;
4389;SDS011;2209;48.982;8.406;2023-05-20T04:25:38;3.00;;;2.80;;
4389;SDS011;2209;48.982;8.406;2023-05-20T04:28:01;2.67;;;2.47;;
4389;SDS011;2209;48.982;8.406;2023-05-20T04:30:24;3.10;;;1.83;;
4389;SDS011;2209;48.982;8.406;2023-05-20T04:32:46;2.83;;;2.60;;
4389;SDS011;2209;48.982;8.406;2023-05-20T04:35:09;2.87;;;2.67;;
4389;SDS011;2209;48.982;8.406;2023-05-20T04:37:33;3.63;;;3.37;;
4389;SDS011;2209;48.982;8.406;2023-05-20T04:39:56;5.57;;;2.87;;
4389;SDS011;2209;48.982;8.406;2023-05-20T04:42:20;3.13;;;1.97;;
4389;SDS011;2209;48.982;8.406;2023-05-20T04:44:42;2.97;;;2.17;;
4389;SDS011;2209;48.982;8.406;2023-05-20T04:47:05;2.57;;;2.37;;
4389;SDS011;2209;48.982;8.406;2023-05-20T04:49:28;7.67;;;2.27;;
4389;SDS011;2209;48.982;8.406;2023-05-20T04:51:50;2.67;;;2.30;;
4389;SDS011;2209;48.982;8.406;2023-05-20T04:54:14;2.47;;;2.27;;
4389;SDS011;2209;48.982;8.406;2023-05-20T04:56:37;3.30;;;2.70;;
4389;SDS011;2209;48.982;8.406;2023-05-20T04:59:01;2.83;;;2.63;;
4389;SDS011;2209;48.982;8.406;2023-05-20T05:01:23;2.13;;;1.93;;
4389;SDS011;2209;48.982;8.406;2023-05-20T05:03:45;3.20;;;2.90;;
4389;SDS011;2209;48.982;8.406;2023-05-20T05:06:07;3.13;;;2.87;;
4389;SDS011;2209;48.982;8.406;2023-05-20T05:08:29;2.73;;;2.53;;
4389;SDS011;2209;48.982;8.406;2023-05-20T05:10:51;5.20;;;2.10;;
4389;SDS011;2209;48.982;8.406;2023-05-20T05:13:13;4.90;;;2.20;;
4389;SDS011;2209;48.982;8.406;2023-05-20T05:15:37;2.40;;;2.20;;
4389;SDS011;2209;48.982;8.406;2023-05-20T05:17:59;2.03;;;1.90;;
4389;SDS011;2209;48.982;8.406;2023-05-20T05:20:21;2.33;;;2.13;;
4389;SDS011;2209;48.982;8.406;2023-05-20T05:22:43;2.73;;;2.40;;
4389;SDS011;2209;48.982;8.406;2023-05-20T05:25:06;5.40;;;2.80;;
4389;SDS011;2209;48.982;8.406;2023-05-20T05:27:28;2.83;;;2.60;;
4389;SDS011;2209;48.982;8.406;2023-05-20T05:29:51;3.20;;;2.60;;
4389;SDS011;2209;48.982;8.406;2023-05-20T05:32:14;5.10;;;3.07;;
4389;SDS011;2209;48.982;8.406;2023-05-20T05:34:36;2.90;;;2.60;;
4389;SDS011;2209;48.982;8.406;2023-05-20T05:36:58;2.30;;;2.10;;
4389;SDS011;2209;48.982;8.406;2023-05-20T05:39:22;5.17;;;3.03;;
4389;SDS011;2209;48.982;8.406;2023-05-20T05:41:44;2.87;;;2.67;;
4389;SDS011;2209;48.982;8.406;2023-05-20T05:44:06;4.10;;;2.33;;
4389;SDS011;2209;48.982;8.406;2023-05-20T05:46:30;2.63;;;2.43;;
4389;SDS011;2209;48.982;8.406;2023-05-20T05:48:54;2.03;;;1.93;;
4389;SDS011;2209;48.982;8.406;2023-05-20T05:51:18;7.43;;;3.33;;
4389;SDS011;2209;48.982;8.406;2023-05-20T05:53:40;3.63;;;3.30;;
4389;SDS011;2209;48.982;8.406;2023-05-20T05:56:02;2.33;;;2.23;;
4389;SDS011;2209;48.982;8.406;2023-05-20T05:58:25;3.40;;;2.43;;
4389;SDS011;2209;48.982;8.406;2023-05-20T06:00:49;1.90;;;1.80;;
4389;SDS011;2209;48.982;8.406;2023-05-20T06:03:12;3.60;;;3.20;;
4389;SDS011;2209;48.982;8.406;2023-05-20T06:05:35;7.63;;;2.23;;
4389;SDS011;2209;48.982;8.406;2023-05-20T06:07:57;2.83;;;2.23;;
4389;SDS011;2209;48.982;8.406;2023-05-20T06:10:19;4.13;;;3.00;;
4389;SDS011;2209;48.982;8.406;2023-05-20T06:12:41;3.37;;;2.63;;
4389;SDS011;2209;48.982;8.406;2023-05-20T06:15:06;4.90;;;2.60;;
4389;SDS011;2209;48.982;8.406;2023-05-20T06:17:29;9.93;;;2.97;;
4389;SDS011;2209;48.982;8.406;2023-05-20T06:19:51;3.40;;;3.20;;
4389;SDS011;2209;48.982;8.406;2023-05-20T06:22:14;3.53;;;2.50;;
4389;SDS011;2209;48.982;8.406;2023-05-20T06:24:36;3.70;;;2.47;;
4389;SDS011;2209;48.982;8.406;2023-05-20T06:26:58;5.57;;;5.03;;
4389;SDS011;2209;48.982;8.406;2023-05-20T06:29:20;4.13;;;3.03;;
4389;SDS011;2209;48.982;8.406;2023-05-20T06:31:43;4.17;;;3.17;;
4389;SDS011;2209;48.982;8.406;2023-05-20T06:34:05;4.87;;;3.10;;
4389;SDS011;2209;48.982;8.406;2023-05-20T06:36:27;6.53;;;3.03;;
4389;SDS011;2209;48.982;8.406;2023-05-20T06:38:51;4.70;;;3.17;;
4389;SDS011;2209;48.982;8.406;2023-05-20T06:41:15;2.70;;;2.50;;
4389;SDS011;2209;48.982;8.406;2023-05-20T06:43:37;4.20;;;3.80;;
4389;SDS011;2209;48.982;8.406;2023-05-20T06:45:59;4.00;;;3.27;;
4389;SDS011;2209;48.982;8.406;2023-05-20T06:48:21;7.43;;;3.33;;
4389;SDS011;2209;48.982;8.406;2023-05-20T06:50:44;2.90;;;2.67;;
4389;SDS011;2209;48.982;8.406;2023-05-20T06:53:06;10.20;;;4.03;;
4389;SDS011;2209;48.982;8.406;2023-05-20T06:55:29;3.23;;;2.93;;
4389;SDS011;2209;48.982;8.406;2023-05-20T06:57:51;2.80;;;2.47;;
4389;SDS011;2209;48.982;8.406;2023-05-20T07:00:14;4.20;;;3.80;;
4389;SDS011;2209;48.982;8.406;2023-05-20T07:02:36;3.37;;;3.07;;
4389;SDS011;2209;48.982;8.406;2023-05-20T07:04:58;4.03;;;3.30;;
4389;SDS011;2209;48.982;8.406;2023-05-20T07:07:20;3.30;;;3.00;;
4389;SDS011;2209;48.982;8.406;2023-05-20T07:09:42;4.67;;;3.07;;
4389;SDS011;2209;48.982;8.406;2023-05-20T07:12:08;3.13;;;2.93;;
4389;SDS011;2209;48.982;8.406;2023-05-20T07:14:30;4.37;;;3.83;;
4389;SDS011;2209;48.982;8.406;2023-05-20T07:16:52;4.57;;;3.50;;
4389;SDS011;2209;48.982;8.406;2023-05-20T07:19:23;5.30;;;3.57;;
4389;SDS011;2209;48.982;8.406;2023-05-20T07:21:47;5.20;;;3.63;;
4389;SDS011;2209;48.982;8.406;2023-05-20T07:24:10;4.73;;;3.53;;
4389;SDS011;2209;48.982;8.406;2023-05-20T07:26:33;4.73;;;4.10;;
4389;SDS011;2209;48.982;8.406;2023-05-20T07:29:02;4.03;;;3.63;;
4389;SDS011;2209;48.982;8.406;2023-05-20T07:31:47;4.03;;;3.73;;
4389;SDS011;2209;48.982;8.406;2023-05-20T07:34:09;5.13;;;3.20;;
4389;SDS011;2209;48.982;8.406;2023-05-20T07:36:31;4.30;;;3.50;;
4389;SDS011;2209;48.982;8.406;2023-05-20T07:38:53;4.90;;;4.00;;
4389;SDS011;2209;48.982;8.406;2023-05-20T07:41:15;4.80;;;3.70;;
4389;SDS011;2209;48.982;8.406;2023-05-20T07:43:38;5.70;;;4.13;;
4389;SDS011;2209;48.982;8.406;2023-05-20T07:46:01;4.80;;;3.20;;
4389;SDS011;2209;48.982;8.406;2023-05-20T07:48:23;3.70;;;3.40;;
4389;SDS011;2209;48.982;8.406;2023-05-20T07:50:45;3.87;;;3.20;;
4389;SDS011;2209;48.982;8.406;2023-05-20T07:53:07;10.33;;;4.47;;
4389;SDS011;2209;48.982;8.406;2023-05-20T07:55:32;4.07;;;3.70;;
4389;SDS011;2209;48.982;8.406;2023-05-20T07:57:55;6.27;;;4.67;;
4389;SDS011;2209;48.982;8.406;2023-05-20T08:00:17;4.57;;;3.30;;
4389;SDS011;2209;48.982;8.406;2023-05-20T08:02:41;5.73;;;4.10;;
4389;SDS011;2209;48.982;8.406;2023-05-20T08:05:04;5.10;;;4.43;;
4389;SDS011;2209;48.982;8.406;2023-05-20T08:07:27;5.33;;;4.03;;
4389;SDS011;2209;48.982;8.406;2023-05-20T08:09:50;3.67;;;3.37;;
4389;SDS011;2209;48.982;8.406;2023-05-20T08:12:15;4.70;;;3.80;;
4389;SDS011;2209;48.982;8.406;2023-05-20T08:14:37;7.43;;;3.60;;
4389;SDS011;2209;48.982;8.406;2023-05-20T08:16:59;4.73;;;4.23;;
4389;SDS011;2209;48.982;8.406;2023-05-20T08:19:22;5.77;;;4.10;;
4389;SDS011;2209;48.982;8.406;2023-05-20T08:21:45;4.90;;;4.37;;
4389;SDS011;2209;48.982;8.406;2023-05-20T08:24:07;4.80;;;3.73;;
4389;SDS011;2209;48.982;8.406;2023-05-20T08:26:29;7.40;;;4.33;;
4389;SDS011;2209;48.982;8.406;2023-05-20T08:28:51;4.07;;;3.60;;
4389;SDS011;2209;48.982;8.406;2023-05-20T08:31:14;4.20;;;3.80;;
4389;SDS011;2209;48.982;8.406;2023-05-20T08:33:37;5.40;;;4.90;;
4389;SDS011;2209;48.982;8.406;2023-05-20T08:36:00;6.57;;;5.37;;
4389;SDS011;2209;48.982;8.406;2023-05-20T08:38:22;4.97;;;4.57;;
4389;SDS011;2209;48.982;8.406;2023-05-20T08:40:44;6.40;;;3.80;;
4389;SDS011;2209;48.982;8.406;2023-05-20T08:43:13;5.77;;;4.80;;
4389;SDS011;2209;48.982;8.406;2023-05-20T08:45:36;8.00;;;4.50;;
4389;SDS011;2209;48.982;8.406;2023-05-20T08:47:59;6.53;;;4.30;;
4389;SDS011;2209;48.982;8.406;2023-05-20T08:50:21;5.60;;;4.00;;
4389;SDS011;2209;48.982;8.406;2023-05-20T08:52:45;4.17;;;3.70;;
4389;SDS011;2209;48.982;8.406;2023-05-20T08:55:08;5.20;;;3.90;;
4389;SDS011;2209;48.982;8.406;2023-05-20T08:57:34;4.80;;;4.30;;
4389;SDS011;2209;48.982;8.406;2023-05-20T08:59:58;4.60;;;4.20;;
4389;SDS011;2209;48.982;8.406;2023-05-20T09:02:20;5.40;;;4.30;;
4389;SDS011;2209;48.982;8.406;2023-05-20T09:04:42;6.10;;;4.13;;
4389;SDS011;2209;48.982;8.406;2023-05-20T09:07:04;4.93;;;4.43;;
4389;SDS011;2209;48.982;8.406;2023-05-20T09:09:28;8.73;;;4.70;;
4389;SDS011;2209;48.982;8.406;2023-05-20T09:11:50;5.90;;;4.20;;
4389;SDS011;2209;48.982;8.406;2023-05-20T09:14:12;5.43;;;4.60;;
4389;SDS011;2209;48.982;8.406;2023-05-20T09:16:34;5.67;;;4.30;;
4389;SDS011;2209;48.982;8.406;2023-05-20T09:18:56;4.90;;;4.17;;
4389;SDS011;2209;48.982;8.406;2023-05-20T09:21:18;5.07;;;4.07;;
4389;SDS011;2209;48.982;8.406;2023-05-20T09:23:46;6.53;;;5.00;;
4389;SDS011;2209;48.982;8.406;2023-05-20T09:26:14;5.87;;;4.40;;
4389;SDS011;2209;48.982;8.406;2023-05-20T09:28:41;4.57;;;4.17;;
4389;SDS011;2209;48.982;8.406;2023-05-20T09:31:04;9.90;;;4.30;;
4389;SDS011;2209;48.982;8.406;2023-05-20T09:33:28;4.03;;;3.70;;
4389;SDS011;2209;48.982;8.406;2023-05-20T09:35:51;6.47;;;5.87;;
4389;SDS011;2209;48.982;8.406;2023-05-20T09:38:15;5.13;;;4.63;;
4389;SDS011;2209;48.982;8.406;2023-05-20T09:40:41;4.60;;;4.20;;
4389;SDS011;2209;48.982;8.406;2023-05-20T09:43:07;4.93;;;4.30;;
4389;SDS011;2209;48.982;8.406;2023-05-20T09:45:30;6.00;;;5.40;;
4389;SDS011;2209;48.982;8.406;2023-05-20T09:47:53;4.90;;;4.37;;
4389;SDS011;2209;48.982;8.406;2023-05-20T09:50:16;5.17;;;4.50;;
4389;SDS011;2209;48.982;8.406;2023-05-20T09:52:40;6.43;;;4.40;;
4389;SDS011;2209;48.982;8.406;2023-05-20T09:55:05;6.43;;;4.27;;
4389;SDS011;2209;48.982;8.406;2023-05-20T09:57:29;5.67;;;4.10;;
4389;SDS011;2209;48.982;8.406;2023-05-20T09:59:57;5.90;;;5.30;;
4389;SDS011;2209;48.982;8.406;2023-05-20T10:02:19;5.20;;;4.73;;
4389;SDS011;2209;48.982;8.406;2023-05-20T10:04:43;4.50;;;4.10;;
4389;SDS011;2209;48.982;8.406;2023-05-20T10:07:12;7.03;;;5.17;;
4389;SDS011;2209;48.982;8.406;2023-05-20T10:09:50;4.93;;;4.37;;
4389;SDS011;2209;48.982;8.406;2023-05-20T10:12:25;6.23;;;4.43;;
4389;SDS011;2209;48.982;8.406;2023-05-20T10:14:57;7.97;;;4.27;;
4389;SDS011;2209;48.982;8.406;2023-05-20T10:17:34;4.53;;;4.13;;
4389;SDS011;2209;48.982;8.406;2023-05-20T10:20:00;4.40;;;4.00;;
4389;SDS011;2209;48.982;8.406;2023-05-20T10:22:27;4.77;;;4.37;;
4389;SDS011;2209;48.982;8.406;2023-05-20T10:24:56;5.17;;;4.73;;
4389;SDS011;2209;48.982;8.406;2023-05-20T10:27:19;4.97;;;4.57;;
4389;SDS011;2209;48.982;8.406;2023-05-20T10:29:42;5.30;;;4.00;;
4389;SDS011;2209;48.982;8.406;2023-05-20T10:32:06;4.90;;;4.50;;
4389;SDS011;2209;48.982;8.406;2023-05-20T10:34:28;4.60;;;3.37;;
4389;SDS011;2209;48.982;8.406;2023-05-20T10:37:06;4.47;;;3.90;;
4389;SDS011;2209;48.982;8.406;2023-05-20T10:39:28;5.33;;;4.43;;
4389;SDS011;2209;48.982;8.406;2023-05-20T10:42:03;5.17;;;4.63;;
4389;SDS011;2209;48.982;8.406;2023-05-20T10:44:38;4.23;;;3.57;;
4389;SDS011;2209;48.982;8.406;2023-05-20T10:47:01;5.43;;;4.70;;
4389;SDS011;2209;48.982;8.406;2023-05-20T10:49:25;4.73;;;4.30;;
4389;SDS011;2209;48.982;8.406;2023-05-20T10:51:55;3.93;;;3.63;;
4389;SDS011;2209;48.982;8.406;2023-05-20T10:54:17;5.20;;;4.70;;
4389;SDS011;2209;48.982;8.406;2023-05-20T10:56:39;4.27;;;3.87;;
4389;SDS011;2209;48.982;8.406;2023-05-20T10:59:12;6.87;;;5.60;;
4389;SDS011;2209;48.982;8.406;2023-05-20T11:01:34;5.90;;;3.40;;
4389;SDS011;2209;48.982;8.406;2023-05-20T11:03:59;6.07;;;4.20;;
4389;SDS011;2209;48.982;8.406;2023-05-20T11:06:26;5.60;;;4.80;;
4389;SDS011;2209;48.982;8.406;2023-05-20T11:08:49;4.80;;;4.33;;
4389;SDS011;2209;48.982;8.406;2023-05-20T11:11:11;4.60;;;4.17;;
4389;SDS011;2209;48.982;8.406;2023-05-20T11:13:34;6.90;;;4.53;;
4389;SDS011;2209;48.982;8.406;2023-05-20T11:15:56;5.97;;;5.10;;
4389;SDS011;2209;48.982;8.406;2023-05-20T11:18:18;5.33;;;4.07;;
4389;SDS011;2209;48.982;8.406;2023-05-20T11:20:40;6.20;;;5.27;;
4389;SDS011;2209;48.982;8.406;2023-05-20T11:23:10;5.70;;;4.33;;
4389;SDS011;2209;48.982;8.406;2023-05-20T11:25:32;7.43;;;4.03;;
4389;SDS011;2209;48.982;8.406;2023-05-20T11:27:55;4.97;;;4.40;;
4389;SDS011;2209;48.982;8.406;2023-05-20T11:30:19;4.20;;;3.80;;
4389;SDS011;2209;48.982;8.406;2023-05-20T11:32:42;4.43;;;3.83;;
4389;SDS011;2209;48.982;8.406;2023-05-20T11:35:05;6.23;;;4.57;;
4389;SDS011;2209;48.982;8.406;2023-05-20T11:37:28;5.60;;;5.07;;
4389;SDS011;2209;48.982;8.406;2023-05-20T11:40:02;5.50;;;4.50;;
4389;SDS011;2209;48.982;8.406;2023-05-20T11:42:29;7.33;;;4.87;;
4389;SDS011;2209;48.982;8.406;2023-05-20T11:44:52;5.03;;;4.43;;
4389;SDS011;2209;48.982;8.406;2023-05-20T11:47:14;5.37;;;3.93;;
4389;SDS011;2209;48.982;8.406;2023-05-20T11:49:38;5.30;;;3.90;;
4389;SDS011;2209;48.982;8.406;2023-05-20T11:52:01;7.70;;;5.37;;
4389;SDS011;2209;48.982;8.406;2023-05-20T11:54:28;5.87;;;4.17;;
4389;SDS011;2209;48.982;8.406;2023-05-20T11:56:52;11.77;;;4.20;;
4389;SDS011;2209;48.982;8.406;2023-05-20T11:59:15;7.53;;;5.00;;
4389;SDS011;2209;48.982;8.406;2023-05-20T12:01:37;5.43;;;4.93;;
4389;SDS011;2209;48.982;8.406;2023-05-20T12:04:02;7.10;;;4.10;;
4389;SDS011;2209;48.982;8.406;2023-05-20T12:06:26;4.30;;;3.90;;
4389;SDS011;2209;48.982;8.406;2023-05-20T12:08:48;5.40;;;4.27;;
4389;SDS011;2209;48.982;8.406;2023-05-20T12:11:10;7.30;;;5.67;;
4389;SDS011;2209;48.982;8.406;2023-05-20T12:13:34;4.63;;;4.13;;
4389;SDS011;2209;48.982;8.406;2023-05-20T12:15:56;5.57;;;4.73;;
4389;SDS011;2209;48.982;8.406;2023-05-20T12:18:18;4.63;;;4.23;;
4389;SDS011;2209;48.982;8.406;2023-05-20T12:20:41;5.17;;;4.50;;
4389;SDS011;2209;48.982;8.406;2023-05-20T12:23:03;8.90;;;4.87;;
4389;SDS011;2209;48.982;8.406;2023-05-20T12:25:25;6.10;;;4.67;;
4389;SDS011;2209;48.982;8.406;2023-05-20T12:27:47;9.20;;;4.40;;
4389;SDS011;2209;48.982;8.406;2023-05-20T12:30:11;5.77;;;4.70;;
4389;SDS011;2209;48.982;8.406;2023-05-20T12:32:35;5.97;;;4.83;;
4389;SDS011;2209;48.982;8.406;2023-05-20T12:35:02;6.43;;;4.20;;
4389;SDS011;2209;48.982;8.406;2023-05-20T12:37:35;6.13;;;4.37;;
4389;SDS011;2209;48.982;8.406;2023-05-20T12:39:59;7.40;;;3.60;;
4389;SDS011;2209;48.982;8.406;2023-05-20T12:42:21;4.47;;;4.03;;
4389;SDS011;2209;48.982;8.406;2023-05-20T12:44:43;6.43;;;4.63;;
4389;SDS011;2209;48.982;8.406;2023-05-20T12:47:07;5.50;;;4.70;;
4389;SDS011;2209;48.982;8.406;2023-05-20T12:49:32;6.90;;;4.73;;
4389;SDS011;2209;48.982;8.406;2023-05-20T12:51:54;5.37;;;4.43;;
4389;SDS011;2209;48.982;8.406;2023-05-20T12:54:16;7.67;;;4.23;;
4389;SDS011;2209;48.982;8.406;2023-05-20T12:56:39;4.50;;;4.10;;
4389;SDS011;2209;48.982;8.406;2023-05-20T12:59:01;6.27;;;5.60;;
4389;SDS011;2209;48.982;8.406;2023-05-20T13:01:23;6.10;;;5.53;;
4389;SDS011;2209;48.982;8.406;2023-05-20T13:03:47;5.07;;;4.50;;
4389;SDS011;2209;48.982;8.406;2023-05-20T13:06:12;8.20;;;4.87;;
4389;SDS011;2209;48.982;8.406;2023-05-20T13:08:35;8.30;;;5.23;;
4389;SDS011;2209;48.982;8.406;2023-05-20T13:10:57;6.00;;;4.90;;
4389;SDS011;2209;48.982;8.406;2023-05-20T13:13:19;4.87;;;4.47;;
4389;SDS011;2209;48.982;8.406;2023-05-20T13:15:41;5.80;;;4.60;;
4389;SDS011;2209;48.982;8.406;2023-05-20T13:18:03;5.00;;;4.23;;
4389;SDS011;2209;48.982;8.406;2023-05-20T13:20:27;4.73;;;4.33;;
4389;SDS011;2209;48.982;8.406;2023-05-20T13:22:50;4.23;;;3.73;;
4389;SDS011;2209;48.982;8.406;2023-05-20T13:25:12;5.30;;;4.80;;
4389;SDS011;2209;48.982;8.406;2023-05-20T13:27:34;5.80;;;4.50;;
4389;SDS011;2209;48.982;8.406;2023-05-20T13:29:56;5.63;;;5.00;;
4389;SDS011;2209;48.982;8.406;2023-05-20T13:32:18;5.20;;;4.80;;
4389;SDS011;2209;48.982;8.406;2023-05-20T13:34:40;7.37;;;5.00;;
4389;SDS011;2209;48.982;8.406;2023-05-20T13:37:04;5.53;;;5.00;;
4389;SDS011;2209;48.982;8.406;2023-05-20T13:39:26;4.80;;;4.40;;
4389;SDS011;2209;48.982;8.406;2023-05-20T13:41:49;5.00;;;4.23;;
4389;SDS011;2209;48.982;8.406;2023-05-20T13:44:12;5.60;;;5.10;;
4389;SDS011;2209;48.982;8.406;2023-05-20T13:46:35;6.07;;;4.73;;
4389;SDS011;2209;48.982;8.406;2023-05-20T13:48:57;5.47;;;4.70;;
4389;SDS011;2209;48.982;8.406;2023-05-20T13:51:20;8.20;;;5.40;;
4389;SDS011;2209;48.982;8.406;2023-05-20T13:53:43;4.17;;;3.77;;
4389;SDS011;2209;48.982;8.406;2023-05-20T13:56:05;5.30;;;4.80;;
4389;SDS011;2209;48.982;8.406;2023-05-20T13:58:29;7.10;;;5.10;;
4389;SDS011;2209;48.982;8.406;2023-05-20T14:00:51;6.20;;;4.97;;
4389;SDS011;2209;48.982;8.406;2023-05-20T14:03:16;6.87;;;5.30;;
4389;SDS011;2209;48.982;8.406;2023-05-20T14:05:39;6.37;;;5.60;;
4389;SDS011;2209;48.982;8.406;2023-05-20T14:08:01;4.87;;;4.47;;
4389;SDS011;2209;48.982;8.406;2023-05-20T14:10:24;7.10;;;4.83;;
4389;SDS011;2209;48.982;8.406;2023-05-20T14:12:47;7.10;;;4.90;;
4389;SDS011;2209;48.982;8.406;2023-05-20T14:15:10;6.30;;;5.73;;
4389;SDS011;2209;48.982;8.406;2023-05-20T14:17:32;5.67;;;5.17;;
4389;SDS011;2209;48.982;8.406;2023-05-20T14:19:55;5.83;;;4.83;;
4389;SDS011;2209;48.982;8.406;2023-05-20T14:22:17;5.70;;;4.03;;
4389;SDS011;2209;48.982;8.406;2023-05-20T14:24:39;6.20;;;5.50;;
4389;SDS011;2209;48.982;8.406;2023-05-20T14:27:03;7.70;;;5.37;;
4389;SDS011;2209;48.982;8.406;2023-05-20T14:29:28;6.33;;;5.73;;
4389;SDS011;2209;48.982;8.406;2023-05-20T14:31:50;6.73;;;4.83;;
4389;SDS011;2209;48.982;8.406;2023-05-20T14:34:12;8.50;;;5.20;;
4389;SDS011;2209;48.982;8.406;2023-05-20T14:36:36;5.80;;;4.60;;
4389;SDS011;2209;48.982;8.406;2023-05-20T14:38:58;5.83;;;5.23;;
4389;SDS011;2209;48.982;8.406;2023-05-20T14:41:20;6.57;;;5.50;;
4389;SDS011;2209;48.982;8.406;2023-05-20T14:43:44;6.70;;;4.60;;
4389;SDS011;2209;48.982;8.406;2023-05-20T14:46:06;5.20;;;4.50;;
4389;SDS011;2209;48.982;8.406;2023-05-20T14:48:28;4.77;;;4.17;;
4389;SDS011;2209;48.982;8.406;2023-05-20T14:50:50;7.40;;;5.60;;